sensor_id;sensor_type;location;lat;lon;timestamp;P1;durP1;ratioP1;P2;durP2;ratioP2
2644;SDS011;15377;48.540;9.268;2024-01-06T00:01:45;15.10;;;9.17;;
2644;SDS011;15377;48.540;9.268;2024-01-06T00:04:10;20.60;;;9.53;;
2644;SDS011;15377;48.540;9.268;2024-01-06T00:06:35;15.73;;;9.33;;
2644;SDS011;15377;48.540;9.268;2024-01-06T00:09:01;18.37;;;9.97;;
2644;SDS011;15377;48.540;9.268;2024-01-06T00:11:26;13.90;;;8.90;;
2644;SDS011;15377;48.540;9.268;2024-01-06T00:13:51;15.87;;;9.20;;
2644;SDS011;15377;48.540;9.268;2024-01-06T00:16:17;14.20;;;7.93;;
2644;SDS011;15377;48.540;9.268;2024-01-06T00:18:44;14.30;;;8.33;;
2644;SDS011;15377;48.540;9.268;2024-01-06T00:21:09;15.90;;;8.33;;
2644;SDS011;15377;48.540;9.268;2024-01-06T00:23:35;18.03;;;7.80;;
2644;SDS011;15377;48.540;9.268;2024-01-06T00:26:00;13.67;;;7.50;;
2644;SDS011;15377;48.540;9.268;2024-01-06T00:28:25;16.07;;;8.07;;
2644;SDS011;15377;48.540;9.268;2024-01-06T00:30:51;23.90;;;8.40;;
2644;SDS011;15377;48.540;9.268;2024-01-06T00:33:16;15.07;;;7.97;;
2644;SDS011;15377;48.540;9.268;2024-01-06T00:35:41;12.67;;;7.47;;
2644;SDS011;15377;48.540;9.268;2024-01-06T00:38:07;19.20;;;8.13;;
2644;SDS011;15377;48.540;9.268;2024-01-06T00:40:32;13.40;;;7.17;;
2644;SDS011;15377;48.540;9.268;2024-01-06T00:42:58;11.90;;;7.83;;
2644;SDS011;15377;48.540;9.268;2024-01-06T00:45:23;14.93;;;8.77;;
2644;SDS011;15377;48.540;9.268;2024-01-06T00:47:48;12.53;;;7.23;;
2644;SDS011;15377;48.540;9.268;2024-01-06T00:50:14;14.00;;;7.33;;
2644;SDS011;15377;48.540;9.268;2024-01-06T00:52:41;14.70;;;7.63;;
2644;SDS011;15377;48.540;9.268;2024-01-06T00:55:06;14.63;;;8.35;;
2644;SDS011;15377;48.540;9.268;2024-01-06T00:57:32;22.03;;;8.43;;
2644;SDS011;15377;48.540;9.268;2024-01-06T00:59:58;15.77;;;9.13;;
2644;SDS011;15377;48.540;9.268;2024-01-06T01:02:23;14.23;;;9.17;;
2644;SDS011;15377;48.540;9.268;2024-01-06T01:04:48;13.43;;;7.77;;
2644;SDS011;15377;48.540;9.268;2024-01-06T01:07:14;12.83;;;7.73;;
2644;SDS011;15377;48.540;9.268;2024-01-06T01:09:39;21.03;;;8.30;;
2644;SDS011;15377;48.540;9.268;2024-01-06T01:12:05;14.97;;;9.33;;
2644;SDS011;15377;48.540;9.268;2024-01-06T01:14:30;14.30;;;7.80;;
2644;SDS011;15377;48.540;9.268;2024-01-06T01:16:55;18.53;;;8.20;;
2644;SDS011;15377;48.540;9.268;2024-01-06T01:19:21;16.70;;;8.20;;
2644;SDS011;15377;48.540;9.268;2024-01-06T01:21:46;14.60;;;7.27;;
2644;SDS011;15377;48.540;9.268;2024-01-06T01:24:11;15.00;;;8.93;;
2644;SDS011;15377;48.540;9.268;2024-01-06T01:26:37;14.50;;;7.77;;
2644;SDS011;15377;48.540;9.268;2024-01-06T01:29:02;11.73;;;7.10;;
2644;SDS011;15377;48.540;9.268;2024-01-06T01:31:27;17.70;;;8.27;;
2644;SDS011;15377;48.540;9.268;2024-01-06T01:33:53;16.13;;;7.60;;
2644;SDS011;15377;48.540;9.268;2024-01-06T01:36:18;11.80;;;7.20;;
2644;SDS011;15377;48.540;9.268;2024-01-06T01:38:43;14.50;;;8.53;;
2644;SDS011;15377;48.540;9.268;2024-01-06T01:41:09;14.60;;;8.43;;
2644;SDS011;15377;48.540;9.268;2024-01-06T01:43:34;13.60;;;7.77;;
2644;SDS011;15377;48.540;9.268;2024-01-06T01:45:59;11.77;;;7.30;;
2644;SDS011;15377;48.540;9.268;2024-01-06T01:48:25;14.33;;;7.90;;
2644;SDS011;15377;48.540;9.268;2024-01-06T01:50:51;13.07;;;7.50;;
2644;SDS011;15377;48.540;9.268;2024-01-06T01:53:18;15.82;;;7.65;;
2644;SDS011;15377;48.540;9.268;2024-01-06T01:55:44;16.40;;;7.43;;
2644;SDS011;15377;48.540;9.268;2024-01-06T01:58:12;14.95;;;8.65;;
2644;SDS011;15377;48.540;9.268;2024-01-06T02:00:39;14.27;;;7.60;;
2644;SDS011;15377;48.540;9.268;2024-01-06T02:03:07;13.65;;;8.00;;
2644;SDS011;15377;48.540;9.268;2024-01-06T02:05:34;13.02;;;7.47;;
2644;SDS011;15377;48.540;9.268;2024-01-06T02:08:00;13.97;;;7.60;;
2644;SDS011;15377;48.540;9.268;2024-01-06T02:10:25;14.57;;;7.17;;
2644;SDS011;15377;48.540;9.268;2024-01-06T02:12:51;13.70;;;7.50;;
2644;SDS011;15377;48.540;9.268;2024-01-06T02:15:16;11.63;;;6.60;;
2644;SDS011;15377;48.540;9.268;2024-01-06T02:17:43;17.85;;;7.57;;
2644;SDS011;15377;48.540;9.268;2024-01-06T02:20:08;12.67;;;6.40;;
2644;SDS011;15377;48.540;9.268;2024-01-06T02:22:36;16.55;;;7.57;;
2644;SDS011;15377;48.540;9.268;2024-01-06T02:25:02;15.03;;;5.70;;
2644;SDS011;15377;48.540;9.268;2024-01-06T02:27:32;16.90;;;6.65;;
2644;SDS011;15377;48.540;9.268;2024-01-06T02:29:58;11.17;;;7.20;;
2644;SDS011;15377;48.540;9.268;2024-01-06T02:32:23;10.80;;;6.13;;
2644;SDS011;15377;48.540;9.268;2024-01-06T02:34:48;10.77;;;5.93;;
2644;SDS011;15377;48.540;9.268;2024-01-06T02:37:14;12.07;;;6.33;;
2644;SDS011;15377;48.540;9.268;2024-01-06T02:39:39;14.50;;;7.00;;
2644;SDS011;15377;48.540;9.268;2024-01-06T02:42:04;12.77;;;6.40;;
2644;SDS011;15377;48.540;9.268;2024-01-06T02:44:30;12.67;;;6.50;;
2644;SDS011;15377;48.540;9.268;2024-01-06T02:46:55;12.10;;;6.70;;
2644;SDS011;15377;48.540;9.268;2024-01-06T02:49:21;11.57;;;7.33;;
2644;SDS011;15377;48.540;9.268;2024-01-06T02:51:46;12.73;;;6.60;;
2644;SDS011;15377;48.540;9.268;2024-01-06T02:54:11;11.50;;;6.97;;
2644;SDS011;15377;48.540;9.268;2024-01-06T02:56:37;11.60;;;6.03;;
2644;SDS011;15377;48.540;9.268;2024-01-06T02:59:03;14.32;;;6.07;;
2644;SDS011;15377;48.540;9.268;2024-01-06T03:01:28;11.60;;;6.47;;
2644;SDS011;15377;48.540;9.268;2024-01-06T03:03:54;13.93;;;5.57;;
2644;SDS011;15377;48.540;9.268;2024-01-06T03:06:19;11.20;;;6.17;;
2644;SDS011;15377;48.540;9.268;2024-01-06T03:08:44;11.93;;;6.93;;
2644;SDS011;15377;48.540;9.268;2024-01-06T03:11:10;12.10;;;6.17;;
2644;SDS011;15377;48.540;9.268;2024-01-06T03:13:35;12.20;;;6.90;;
2644;SDS011;15377;48.540;9.268;2024-01-06T03:16:03;17.33;;;6.60;;
2644;SDS011;15377;48.540;9.268;2024-01-06T03:18:30;11.25;;;6.57;;
2644;SDS011;15377;48.540;9.268;2024-01-06T03:20:55;12.57;;;5.53;;
2644;SDS011;15377;48.540;9.268;2024-01-06T03:23:21;16.23;;;6.03;;
2644;SDS011;15377;48.540;9.268;2024-01-06T03:25:46;12.73;;;6.93;;
2644;SDS011;15377;48.540;9.268;2024-01-06T03:28:11;11.57;;;5.80;;
2644;SDS011;15377;48.540;9.268;2024-01-06T03:30:37;12.60;;;6.50;;
2644;SDS011;15377;48.540;9.268;2024-01-06T03:33:02;11.47;;;5.27;;
2644;SDS011;15377;48.540;9.268;2024-01-06T03:35:27;10.77;;;5.30;;
2644;SDS011;15377;48.540;9.268;2024-01-06T03:37:53;12.23;;;5.23;;
2644;SDS011;15377;48.540;9.268;2024-01-06T03:40:18;10.40;;;4.70;;
2644;SDS011;15377;48.540;9.268;2024-01-06T03:42:43;17.73;;;6.03;;
2644;SDS011;15377;48.540;9.268;2024-01-06T03:45:09;10.40;;;6.10;;
2644;SDS011;15377;48.540;9.268;2024-01-06T03:47:34;14.97;;;6.43;;
2644;SDS011;15377;48.540;9.268;2024-01-06T03:49:59;13.93;;;7.07;;
2644;SDS011;15377;48.540;9.268;2024-01-06T03:52:25;12.23;;;6.40;;
2644;SDS011;15377;48.540;9.268;2024-01-06T03:54:50;12.17;;;6.17;;
2644;SDS011;15377;48.540;9.268;2024-01-06T03:57:15;10.87;;;5.63;;
2644;SDS011;15377;48.540;9.268;2024-01-06T03:59:41;10.43;;;4.83;;
2644;SDS011;15377;48.540;9.268;2024-01-06T04:02:07;10.73;;;5.40;;
2644;SDS011;15377;48.540;9.268;2024-01-06T04:04:32;10.77;;;5.13;;
2644;SDS011;15377;48.540;9.268;2024-01-06T04:06:57;10.03;;;5.37;;
2644;SDS011;15377;48.540;9.268;2024-01-06T04:09:23;11.60;;;5.37;;
2644;SDS011;15377;48.540;9.268;2024-01-06T04:11:48;11.70;;;4.90;;
2644;SDS011;15377;48.540;9.268;2024-01-06T04:14:14;9.73;;;4.67;;
2644;SDS011;15377;48.540;9.268;2024-01-06T04:16:39;9.13;;;4.57;;
2644;SDS011;15377;48.540;9.268;2024-01-06T04:19:04;11.33;;;4.63;;
2644;SDS011;15377;48.540;9.268;2024-01-06T04:21:32;10.20;;;4.50;;
2644;SDS011;15377;48.540;9.268;2024-01-06T04:23:57;14.60;;;5.03;;
2644;SDS011;15377;48.540;9.268;2024-01-06T04:26:23;14.63;;;4.80;;
2644;SDS011;15377;48.540;9.268;2024-01-06T04:28:48;10.60;;;6.37;;
2644;SDS011;15377;48.540;9.268;2024-01-06T04:31:13;12.40;;;6.30;;
2644;SDS011;15377;48.540;9.268;2024-01-06T04:33:39;12.53;;;6.20;;
2644;SDS011;15377;48.540;9.268;2024-01-06T04:36:05;12.80;;;6.60;;
2644;SDS011;15377;48.540;9.268;2024-01-06T04:38:31;11.50;;;7.20;;
2644;SDS011;15377;48.540;9.268;2024-01-06T04:40:57;11.33;;;6.50;;
2644;SDS011;15377;48.540;9.268;2024-01-06T04:43:22;13.43;;;6.50;;
2644;SDS011;15377;48.540;9.268;2024-01-06T04:45:48;17.20;;;6.40;;
2644;SDS011;15377;48.540;9.268;2024-01-06T04:48:13;15.77;;;7.00;;
2644;SDS011;15377;48.540;9.268;2024-01-06T04:50:38;11.30;;;6.30;;
2644;SDS011;15377;48.540;9.268;2024-01-06T04:53:03;19.00;;;6.93;;
2644;SDS011;15377;48.540;9.268;2024-01-06T04:55:29;11.90;;;6.23;;
2644;SDS011;15377;48.540;9.268;2024-01-06T04:57:54;14.93;;;7.00;;
2644;SDS011;15377;48.540;9.268;2024-01-06T05:00:19;11.07;;;6.33;;
2644;SDS011;15377;48.540;9.268;2024-01-06T05:02:45;12.47;;;7.80;;
2644;SDS011;15377;48.540;9.268;2024-01-06T05:05:10;14.13;;;6.90;;
2644;SDS011;15377;48.540;9.268;2024-01-06T05:07:36;11.87;;;6.57;;
2644;SDS011;15377;48.540;9.268;2024-01-06T05:10:01;10.40;;;6.50;;
2644;SDS011;15377;48.540;9.268;2024-01-06T05:12:27;14.57;;;5.93;;
2644;SDS011;15377;48.540;9.268;2024-01-06T05:14:52;12.27;;;7.27;;
2644;SDS011;15377;48.540;9.268;2024-01-06T05:17:17;12.17;;;6.80;;
2644;SDS011;15377;48.540;9.268;2024-01-06T05:19:43;12.93;;;6.67;;
2644;SDS011;15377;48.540;9.268;2024-01-06T05:22:08;24.87;;;7.60;;
2644;SDS011;15377;48.540;9.268;2024-01-06T05:24:33;11.60;;;7.13;;
2644;SDS011;15377;48.540;9.268;2024-01-06T05:26:59;11.80;;;6.60;;
2644;SDS011;15377;48.540;9.268;2024-01-06T05:29:24;14.67;;;7.07;;
2644;SDS011;15377;48.540;9.268;2024-01-06T05:31:51;12.57;;;7.00;;
2644;SDS011;15377;48.540;9.268;2024-01-06T05:34:16;13.10;;;6.80;;
2644;SDS011;15377;48.540;9.268;2024-01-06T05:36:42;13.77;;;7.10;;
2644;SDS011;15377;48.540;9.268;2024-01-06T05:39:07;13.53;;;8.03;;
2644;SDS011;15377;48.540;9.268;2024-01-06T05:41:38;17.13;;;8.10;;
2644;SDS011;15377;48.540;9.268;2024-01-06T05:44:04;12.73;;;7.68;;
2644;SDS011;15377;48.540;9.268;2024-01-06T05:46:30;12.80;;;7.43;;
2644;SDS011;15377;48.540;9.268;2024-01-06T05:48:55;15.53;;;8.20;;
2644;SDS011;15377;48.540;9.268;2024-01-06T05:51:21;13.40;;;8.00;;
2644;SDS011;15377;48.540;9.268;2024-01-06T05:53:47;15.13;;;7.33;;
2644;SDS011;15377;48.540;9.268;2024-01-06T05:56:21;14.27;;;7.90;;
2644;SDS011;15377;48.540;9.268;2024-01-06T05:58:48;14.70;;;7.85;;
2644;SDS011;15377;48.540;9.268;2024-01-06T06:01:14;15.33;;;8.50;;
2644;SDS011;15377;48.540;9.268;2024-01-06T06:03:39;13.23;;;7.57;;
2644;SDS011;15377;48.540;9.268;2024-01-06T06:06:04;13.47;;;8.13;;
2644;SDS011;15377;48.540;9.268;2024-01-06T06:08:30;17.33;;;8.47;;
2644;SDS011;15377;48.540;9.268;2024-01-06T06:10:55;13.53;;;8.63;;
2644;SDS011;15377;48.540;9.268;2024-01-06T06:13:27;14.00;;;8.45;;
2644;SDS011;15377;48.540;9.268;2024-01-06T06:15:53;16.45;;;7.57;;
2644;SDS011;15377;48.540;9.268;2024-01-06T06:18:20;12.98;;;7.97;;
2644;SDS011;15377;48.540;9.268;2024-01-06T06:20:45;16.50;;;8.83;;
2644;SDS011;15377;48.540;9.268;2024-01-06T06:23:10;17.30;;;7.30;;
2644;SDS011;15377;48.540;9.268;2024-01-06T06:25:37;13.30;;;8.27;;
2644;SDS011;15377;48.540;9.268;2024-01-06T06:28:03;11.32;;;6.82;;
2644;SDS011;15377;48.540;9.268;2024-01-06T06:30:29;13.93;;;6.27;;
2644;SDS011;15377;48.540;9.268;2024-01-06T06:32:54;15.90;;;7.13;;
2644;SDS011;15377;48.540;9.268;2024-01-06T06:35:20;12.43;;;6.60;;
2644;SDS011;15377;48.540;9.268;2024-01-06T06:37:45;12.53;;;7.80;;
2644;SDS011;15377;48.540;9.268;2024-01-06T06:40:10;14.67;;;7.50;;
2644;SDS011;15377;48.540;9.268;2024-01-06T06:42:36;12.97;;;6.53;;
2644;SDS011;15377;48.540;9.268;2024-01-06T06:45:01;11.77;;;7.20;;
2644;SDS011;15377;48.540;9.268;2024-01-06T06:47:27;11.73;;;6.50;;
2644;SDS011;15377;48.540;9.268;2024-01-06T06:49:52;13.50;;;6.97;;
2644;SDS011;15377;48.540;9.268;2024-01-06T06:52:18;13.40;;;6.27;;
2644;SDS011;15377;48.540;9.268;2024-01-06T06:54:43;10.97;;;6.13;;
2644;SDS011;15377;48.540;9.268;2024-01-06T06:57:08;13.13;;;6.07;;
2644;SDS011;15377;48.540;9.268;2024-01-06T06:59:34;11.60;;;6.20;;
2644;SDS011;15377;48.540;9.268;2024-01-06T07:01:59;10.70;;;5.87;;
2644;SDS011;15377;48.540;9.268;2024-01-06T07:04:24;13.23;;;5.90;;
2644;SDS011;15377;48.540;9.268;2024-01-06T07:06:51;11.50;;;5.35;;
2644;SDS011;15377;48.540;9.268;2024-01-06T07:09:16;10.57;;;5.97;;
2644;SDS011;15377;48.540;9.268;2024-01-06T07:11:41;13.90;;;6.00;;
2644;SDS011;15377;48.540;9.268;2024-01-06T07:14:07;10.87;;;4.67;;
2644;SDS011;15377;48.540;9.268;2024-01-06T07:16:32;11.63;;;5.13;;
2644;SDS011;15377;48.540;9.268;2024-01-06T07:18:57;13.90;;;5.73;;
2644;SDS011;15377;48.540;9.268;2024-01-06T07:21:23;11.13;;;5.63;;
2644;SDS011;15377;48.540;9.268;2024-01-06T07:23:48;14.20;;;5.90;;
2644;SDS011;15377;48.540;9.268;2024-01-06T07:26:13;9.70;;;5.70;;
2644;SDS011;15377;48.540;9.268;2024-01-06T07:28:39;14.57;;;5.53;;
2644;SDS011;15377;48.540;9.268;2024-01-06T07:31:04;10.13;;;5.13;;
2644;SDS011;15377;48.540;9.268;2024-01-06T07:33:29;13.20;;;5.53;;
2644;SDS011;15377;48.540;9.268;2024-01-06T07:35:55;18.87;;;11.13;;
2644;SDS011;15377;48.540;9.268;2024-01-06T07:38:20;11.87;;;6.00;;
2644;SDS011;15377;48.540;9.268;2024-01-06T07:40:45;11.53;;;5.30;;
2644;SDS011;15377;48.540;9.268;2024-01-06T07:43:11;13.47;;;6.97;;
2644;SDS011;15377;48.540;9.268;2024-01-06T07:45:36;13.43;;;7.43;;
2644;SDS011;15377;48.540;9.268;2024-01-06T07:48:02;11.07;;;4.70;;
2644;SDS011;15377;48.540;9.268;2024-01-06T07:50:28;19.60;;;9.30;;
2644;SDS011;15377;48.540;9.268;2024-01-06T07:52:54;11.93;;;5.57;;
2644;SDS011;15377;48.540;9.268;2024-01-06T07:55:19;10.13;;;5.30;;
2644;SDS011;15377;48.540;9.268;2024-01-06T07:57:45;11.40;;;5.10;;
2644;SDS011;15377;48.540;9.268;2024-01-06T08:00:11;9.90;;;5.17;;
2644;SDS011;15377;48.540;9.268;2024-01-06T08:02:43;11.18;;;5.03;;
2644;SDS011;15377;48.540;9.268;2024-01-06T08:05:08;13.23;;;6.20;;
2644;SDS011;15377;48.540;9.268;2024-01-06T08:07:34;12.23;;;6.50;;
2644;SDS011;15377;48.540;9.268;2024-01-06T08:10:00;11.40;;;4.60;;
2644;SDS011;15377;48.540;9.268;2024-01-06T08:12:26;10.97;;;5.23;;
2644;SDS011;15377;48.540;9.268;2024-01-06T08:14:51;10.38;;;6.22;;
2644;SDS011;15377;48.540;9.268;2024-01-06T08:17:17;19.03;;;5.90;;
2644;SDS011;15377;48.540;9.268;2024-01-06T08:19:42;10.03;;;4.80;;
2644;SDS011;15377;48.540;9.268;2024-01-06T08:22:08;13.43;;;5.57;;
2644;SDS011;15377;48.540;9.268;2024-01-06T08:24:33;14.83;;;4.87;;
2644;SDS011;15377;48.540;9.268;2024-01-06T08:26:59;11.27;;;4.87;;
2644;SDS011;15377;48.540;9.268;2024-01-06T08:29:24;12.23;;;5.23;;
2644;SDS011;15377;48.540;9.268;2024-01-06T08:31:49;10.23;;;5.00;;
2644;SDS011;15377;48.540;9.268;2024-01-06T08:34:17;9.50;;;5.10;;
2644;SDS011;15377;48.540;9.268;2024-01-06T08:36:42;10.80;;;4.47;;
2644;SDS011;15377;48.540;9.268;2024-01-06T08:39:08;11.20;;;4.60;;
2644;SDS011;15377;48.540;9.268;2024-01-06T08:41:33;10.83;;;4.20;;
2644;SDS011;15377;48.540;9.268;2024-01-06T08:43:59;19.20;;;5.20;;
2644;SDS011;15377;48.540;9.268;2024-01-06T08:46:24;8.73;;;3.50;;
2644;SDS011;15377;48.540;9.268;2024-01-06T08:48:50;11.10;;;4.13;;
2644;SDS011;15377;48.540;9.268;2024-01-06T08:51:15;9.90;;;4.70;;
2644;SDS011;15377;48.540;9.268;2024-01-06T08:53:40;8.57;;;3.83;;
2644;SDS011;15377;48.540;9.268;2024-01-06T08:56:06;12.40;;;5.00;;
2644;SDS011;15377;48.540;9.268;2024-01-06T08:58:31;10.00;;;3.40;;
2644;SDS011;15377;48.540;9.268;2024-01-06T09:00:57;10.63;;;3.67;;
2644;SDS011;15377;48.540;9.268;2024-01-06T09:03:22;6.50;;;2.90;;
2644;SDS011;15377;48.540;9.268;2024-01-06T09:05:55;10.23;;;3.83;;
2644;SDS011;15377;48.540;9.268;2024-01-06T09:08:21;12.03;;;4.20;;
2644;SDS011;15377;48.540;9.268;2024-01-06T09:10:47;7.80;;;3.30;;
2644;SDS011;15377;48.540;9.268;2024-01-06T09:13:13;8.57;;;3.93;;
2644;SDS011;15377;48.540;9.268;2024-01-06T09:15:38;9.50;;;3.70;;
2644;SDS011;15377;48.540;9.268;2024-01-06T09:18:03;11.90;;;4.13;;
2644;SDS011;15377;48.540;9.268;2024-01-06T09:20:29;9.27;;;3.80;;
2644;SDS011;15377;48.540;9.268;2024-01-06T09:22:54;9.93;;;4.30;;
2644;SDS011;15377;48.540;9.268;2024-01-06T09:25:20;8.70;;;3.80;;
2644;SDS011;15377;48.540;9.268;2024-01-06T09:27:48;16.83;;;4.50;;
2644;SDS011;15377;48.540;9.268;2024-01-06T09:30:13;8.43;;;3.80;;
2644;SDS011;15377;48.540;9.268;2024-01-06T09:32:39;8.43;;;3.20;;
2644;SDS011;15377;48.540;9.268;2024-01-06T09:35:04;8.83;;;3.57;;
2644;SDS011;15377;48.540;9.268;2024-01-06T09:37:30;16.20;;;4.00;;
2644;SDS011;15377;48.540;9.268;2024-01-06T09:39:56;8.87;;;3.23;;
2644;SDS011;15377;48.540;9.268;2024-01-06T09:42:21;8.53;;;3.10;;
2644;SDS011;15377;48.540;9.268;2024-01-06T09:44:46;8.80;;;3.10;;
2644;SDS011;15377;48.540;9.268;2024-01-06T09:47:12;6.70;;;3.10;;
2644;SDS011;15377;48.540;9.268;2024-01-06T09:49:38;9.93;;;3.77;;
2644;SDS011;15377;48.540;9.268;2024-01-06T09:52:07;9.00;;;3.57;;
2644;SDS011;15377;48.540;9.268;2024-01-06T09:54:41;15.00;;;6.63;;
2644;SDS011;15377;48.540;9.268;2024-01-06T09:57:15;9.83;;;4.00;;
2644;SDS011;15377;48.540;9.268;2024-01-06T09:59:41;10.90;;;4.97;;
2644;SDS011;15377;48.540;9.268;2024-01-06T10:02:09;16.87;;;7.23;;
2644;SDS011;15377;48.540;9.268;2024-01-06T10:04:39;12.00;;;3.80;;
2644;SDS011;15377;48.540;9.268;2024-01-06T10:07:04;10.73;;;3.90;;
2644;SDS011;15377;48.540;9.268;2024-01-06T10:09:30;12.23;;;5.67;;
2644;SDS011;15377;48.540;9.268;2024-01-06T10:11:56;14.90;;;9.23;;
2644;SDS011;15377;48.540;9.268;2024-01-06T10:14:24;11.73;;;5.87;;
2644;SDS011;15377;48.540;9.268;2024-01-06T10:16:53;9.70;;;3.97;;
2644;SDS011;15377;48.540;9.268;2024-01-06T10:19:19;8.37;;;4.27;;
2644;SDS011;15377;48.540;9.268;2024-01-06T10:21:44;8.13;;;3.73;;
2644;SDS011;15377;48.540;9.268;2024-01-06T10:24:10;8.83;;;3.40;;
2644;SDS011;15377;48.540;9.268;2024-01-06T10:26:35;8.67;;;4.10;;
2644;SDS011;15377;48.540;9.268;2024-01-06T10:29:01;7.93;;;3.80;;
2644;SDS011;15377;48.540;9.268;2024-01-06T10:31:27;11.90;;;4.03;;
2644;SDS011;15377;48.540;9.268;2024-01-06T10:33:52;8.57;;;3.83;;
2644;SDS011;15377;48.540;9.268;2024-01-06T10:36:19;7.43;;;3.67;;
2644;SDS011;15377;48.540;9.268;2024-01-06T10:38:44;9.50;;;4.20;;
2644;SDS011;15377;48.540;9.268;2024-01-06T10:41:10;8.53;;;3.87;;
2644;SDS011;15377;48.540;9.268;2024-01-06T10:43:37;9.30;;;3.77;;
2644;SDS011;15377;48.540;9.268;2024-01-06T10:46:05;6.70;;;2.73;;
2644;SDS011;15377;48.540;9.268;2024-01-06T10:48:35;8.00;;;3.57;;
2644;SDS011;15377;48.540;9.268;2024-01-06T10:51:03;8.33;;;3.43;;
2644;SDS011;15377;48.540;9.268;2024-01-06T10:53:32;9.43;;;3.10;;
2644;SDS011;15377;48.540;9.268;2024-01-06T10:56:00;7.23;;;3.10;;
2644;SDS011;15377;48.540;9.268;2024-01-06T10:58:26;11.23;;;3.40;;
2644;SDS011;15377;48.540;9.268;2024-01-06T11:00:52;6.80;;;2.63;;
2644;SDS011;15377;48.540;9.268;2024-01-06T11:03:18;7.47;;;3.23;;
2644;SDS011;15377;48.540;9.268;2024-01-06T11:05:44;8.87;;;3.60;;
2644;SDS011;15377;48.540;9.268;2024-01-06T11:08:10;7.30;;;3.27;;
2644;SDS011;15377;48.540;9.268;2024-01-06T11:10:36;7.70;;;2.70;;
2644;SDS011;15377;48.540;9.268;2024-01-06T11:13:21;7.80;;;2.83;;
2644;SDS011;15377;48.540;9.268;2024-01-06T11:15:51;6.13;;;2.70;;
2644;SDS011;15377;48.540;9.268;2024-01-06T11:23:42;6.77;;;2.83;;
2644;SDS011;15377;48.540;9.268;2024-01-06T11:26:07;9.00;;;3.67;;
2644;SDS011;15377;48.540;9.268;2024-01-06T11:28:45;6.80;;;2.97;;
2644;SDS011;15377;48.540;9.268;2024-01-06T11:31:12;6.80;;;2.60;;
2644;SDS011;15377;48.540;9.268;2024-01-06T11:33:43;6.97;;;2.40;;
2644;SDS011;15377;48.540;9.268;2024-01-06T11:36:09;6.17;;;2.17;;
2644;SDS011;15377;48.540;9.268;2024-01-06T11:38:39;6.53;;;2.53;;
2644;SDS011;15377;48.540;9.268;2024-01-06T11:41:08;7.40;;;2.57;;
2644;SDS011;15377;48.540;9.268;2024-01-06T11:43:36;6.80;;;2.30;;
2644;SDS011;15377;48.540;9.268;2024-01-06T11:46:06;5.90;;;2.40;;
2644;SDS011;15377;48.540;9.268;2024-01-06T11:48:33;7.80;;;2.30;;
2644;SDS011;15377;48.540;9.268;2024-01-06T11:50:59;8.13;;;2.70;;
2644;SDS011;15377;48.540;9.268;2024-01-06T11:53:26;6.57;;;2.30;;
2644;SDS011;15377;48.540;9.268;2024-01-06T11:55:52;8.10;;;2.93;;
2644;SDS011;15377;48.540;9.268;2024-01-06T11:58:18;7.23;;;2.60;;
2644;SDS011;15377;48.540;9.268;2024-01-06T12:00:43;9.40;;;2.70;;
2644;SDS011;15377;48.540;9.268;2024-01-06T12:03:09;6.20;;;2.40;;
2644;SDS011;15377;48.540;9.268;2024-01-06T12:05:35;7.00;;;3.00;;
2644;SDS011;15377;48.540;9.268;2024-01-06T12:08:01;6.03;;;2.40;;
2644;SDS011;15377;48.540;9.268;2024-01-06T12:10:31;6.10;;;2.43;;
2644;SDS011;15377;48.540;9.268;2024-01-06T12:13:01;6.43;;;2.97;;
2644;SDS011;15377;48.540;9.268;2024-01-06T12:15:28;6.40;;;2.40;;
2644;SDS011;15377;48.540;9.268;2024-01-06T12:17:55;6.57;;;2.40;;
2644;SDS011;15377;48.540;9.268;2024-01-06T12:20:21;7.27;;;2.47;;
2644;SDS011;15377;48.540;9.268;2024-01-06T12:22:48;9.00;;;2.50;;
2644;SDS011;15377;48.540;9.268;2024-01-06T12:25:15;8.23;;;2.23;;
2644;SDS011;15377;48.540;9.268;2024-01-06T12:27:43;6.37;;;2.13;;
2644;SDS011;15377;48.540;9.268;2024-01-06T12:30:16;6.30;;;2.50;;
2644;SDS011;15377;48.540;9.268;2024-01-06T12:32:46;6.30;;;2.10;;
2644;SDS011;15377;48.540;9.268;2024-01-06T12:35:14;9.50;;;2.47;;
2644;SDS011;15377;48.540;9.268;2024-01-06T12:37:41;6.30;;;2.13;;
2644;SDS011;15377;48.540;9.268;2024-01-06T12:40:11;6.00;;;2.20;;
2644;SDS011;15377;48.540;9.268;2024-01-06T12:42:38;5.70;;;2.00;;
2644;SDS011;15377;48.540;9.268;2024-01-06T12:45:04;7.70;;;2.70;;
2644;SDS011;15377;48.540;9.268;2024-01-06T12:47:31;6.03;;;2.10;;
2644;SDS011;15377;48.540;9.268;2024-01-06T12:49:56;5.97;;;2.23;;
2644;SDS011;15377;48.540;9.268;2024-01-06T12:52:22;8.23;;;2.47;;
2644;SDS011;15377;48.540;9.268;2024-01-06T12:54:47;7.73;;;2.10;;
2644;SDS011;15377;48.540;9.268;2024-01-06T12:57:13;9.10;;;2.30;;
2644;SDS011;15377;48.540;9.268;2024-01-06T12:59:38;6.20;;;2.20;;
2644;SDS011;15377;48.540;9.268;2024-01-06T13:02:03;17.77;;;7.93;;
2644;SDS011;15377;48.540;9.268;2024-01-06T13:04:29;10.20;;;4.07;;
2644;SDS011;15377;48.540;9.268;2024-01-06T13:06:54;7.87;;;2.90;;
2644;SDS011;15377;48.540;9.268;2024-01-06T13:09:20;8.30;;;3.00;;
2644;SDS011;15377;48.540;9.268;2024-01-06T13:11:48;7.00;;;2.60;;
2644;SDS011;15377;48.540;9.268;2024-01-06T13:14:16;11.77;;;5.70;;
2644;SDS011;15377;48.540;9.268;2024-01-06T13:16:42;7.77;;;2.70;;
2644;SDS011;15377;48.540;9.268;2024-01-06T13:19:08;6.27;;;2.37;;
2644;SDS011;15377;48.540;9.268;2024-01-06T13:21:34;14.40;;;6.50;;
2644;SDS011;15377;48.540;9.268;2024-01-06T13:24:00;9.23;;;4.40;;
2644;SDS011;15377;48.540;9.268;2024-01-06T13:26:27;16.07;;;8.30;;
2644;SDS011;15377;48.540;9.268;2024-01-06T13:28:53;6.37;;;2.47;;
2644;SDS011;15377;48.540;9.268;2024-01-06T13:31:19;6.07;;;2.33;;
2644;SDS011;15377;48.540;9.268;2024-01-06T13:33:44;8.97;;;3.20;;
2644;SDS011;15377;48.540;9.268;2024-01-06T13:36:09;10.80;;;4.53;;
2644;SDS011;15377;48.540;9.268;2024-01-06T13:38:35;9.40;;;4.30;;
2644;SDS011;15377;48.540;9.268;2024-01-06T13:41:00;9.00;;;3.20;;
2644;SDS011;15377;48.540;9.268;2024-01-06T13:43:26;14.47;;;5.50;;
2644;SDS011;15377;48.540;9.268;2024-01-06T13:45:51;5.70;;;1.90;;
2644;SDS011;15377;48.540;9.268;2024-01-06T13:48:17;6.63;;;2.30;;
2644;SDS011;15377;48.540;9.268;2024-01-06T13:50:43;6.27;;;2.23;;
2644;SDS011;15377;48.540;9.268;2024-01-06T13:53:10;5.60;;;2.13;;
2644;SDS011;15377;48.540;9.268;2024-01-06T13:55:35;7.50;;;2.60;;
2644;SDS011;15377;48.540;9.268;2024-01-06T13:58:01;9.33;;;3.67;;
2644;SDS011;15377;48.540;9.268;2024-01-06T14:00:26;7.10;;;2.73;;
2644;SDS011;15377;48.540;9.268;2024-01-06T14:02:52;8.93;;;4.00;;
2644;SDS011;15377;48.540;9.268;2024-01-06T14:05:19;6.90;;;2.97;;
2644;SDS011;15377;48.540;9.268;2024-01-06T14:07:44;9.93;;;4.43;;
2644;SDS011;15377;48.540;9.268;2024-01-06T14:10:12;7.33;;;2.30;;
2644;SDS011;15377;48.540;9.268;2024-01-06T14:12:40;5.80;;;1.90;;
2644;SDS011;15377;48.540;9.268;2024-01-06T14:15:06;5.50;;;1.70;;
2644;SDS011;15377;48.540;9.268;2024-01-06T14:17:32;6.67;;;2.13;;
2644;SDS011;15377;48.540;9.268;2024-01-06T14:19:58;8.07;;;2.50;;
2644;SDS011;15377;48.540;9.268;2024-01-06T14:22:23;8.00;;;2.80;;
2644;SDS011;15377;48.540;9.268;2024-01-06T14:24:48;6.90;;;2.37;;
2644;SDS011;15377;48.540;9.268;2024-01-06T14:27:14;5.77;;;2.33;;
2644;SDS011;15377;48.540;9.268;2024-01-06T14:29:40;6.43;;;2.60;;
2644;SDS011;15377;48.540;9.268;2024-01-06T14:32:06;6.50;;;2.10;;
2644;SDS011;15377;48.540;9.268;2024-01-06T14:34:31;6.43;;;2.77;;
2644;SDS011;15377;48.540;9.268;2024-01-06T14:36:57;5.97;;;2.60;;
2644;SDS011;15377;48.540;9.268;2024-01-06T14:39:22;5.90;;;2.60;;
2644;SDS011;15377;48.540;9.268;2024-01-06T14:41:48;7.37;;;2.67;;
2644;SDS011;15377;48.540;9.268;2024-01-06T14:44:14;9.10;;;3.00;;
2644;SDS011;15377;48.540;9.268;2024-01-06T14:46:39;7.50;;;2.53;;
2644;SDS011;15377;48.540;9.268;2024-01-06T14:49:06;9.00;;;3.00;;
2644;SDS011;15377;48.540;9.268;2024-01-06T14:51:32;6.70;;;3.00;;